Time;durP1;ratioP1;P1;durP2;ratioP2;P2;SDS_P1;SDS_P2;PMS_P1;PMS_P2;Temp;Humidity;BMP_temperature;BMP_pressure;BME280_temperature;BME280_humidity;BME280_pressure;Samples;Min_cycle;Max_cycle;Signal;HPM_P1;HPM_P2
2023/01/27 00:00:52;;;;;;;15.93;7.70;;;4.20;99.90;;;;;;5005505;28;20042;-73
2023/01/27 00:03:18;;;;;;;11.85;6.88;;;4.20;99.90;;;;;;4986482;28;20042;-73
2023/01/27 00:05:45;;;;;;;18.45;7.28;;;4.20;99.90;;;;;;5004767;28;20038;-73
2023/01/27 00:08:11;;;;;;;14.52;6.70;;;4.20;99.90;;;;;;5005668;28;20124;-73
2023/01/27 00:10:37;;;;;;;15.63;6.72;;;4.20;99.90;;;;;;4983301;28;20101;-73
2023/01/27 00:15:47;;;;;;;15.25;6.60;;;4.20;99.90;;;;;;5006685;28;20049;-73
2023/01/27 00:18:13;;;;;;;14.67;7.13;;;4.20;99.90;;;;;;4994329;28;20494;-73
2023/01/27 00:26:12;;;;;;;18.08;6.80;;;4.20;99.90;;;;;;5004721;28;20046;-73
2023/01/27 00:28:39;;;;;;;8.25;5.05;;;4.10;99.90;;;;;;4994664;28;20041;-73
2023/01/27 00:33:52;;;;;;;12.73;5.80;;;4.10;99.90;;;;;;5010075;28;20132;-73
2023/01/27 00:36:18;;;;;;;11.93;5.57;;;4.00;99.90;;;;;;4993745;28;20038;-72
2023/01/27 00:38:44;;;;;;;11.53;5.53;;;4.00;99.90;;;;;;5010329;28;20516;-73
2023/01/27 00:41:18;;;;;;;13.50;5.37;;;3.90;99.90;;;;;;5008778;28;20124;-73
2023/01/27 00:43:49;;;;;;;13.13;6.20;;;4.00;99.90;;;;;;5013370;28;20128;-73
2023/01/27 00:46:16;;;;;;;16.83;7.00;;;3.90;99.90;;;;;;5010130;28;20386;-73
2023/01/27 00:48:43;;;;;;;11.90;5.80;;;3.80;99.90;;;;;;4994263;28;20058;-73
2023/01/27 00:51:09;;;;;;;14.98;6.18;;;3.80;99.90;;;;;;5008746;28;20381;-73
2023/01/27 00:53:35;;;;;;;10.52;5.82;;;3.70;99.90;;;;;;5009247;28;20055;-73
2023/01/27 00:56:00;;;;;;;12.73;6.77;;;3.70;99.90;;;;;;5009258;28;20041;-73
2023/01/27 00:58:27;;;;;;;11.57;5.93;;;3.70;99.90;;;;;;5009270;28;20073;-73
2023/01/27 01:00:54;;;;;;;11.25;5.88;;;3.60;99.90;;;;;;5008588;28;20034;-73
2023/01/27 01:03:21;;;;;;;10.65;5.95;;;3.60;99.90;;;;;;5009124;28;20116;-73
2023/01/27 01:05:47;;;;;;;12.30;6.85;;;3.60;99.90;;;;;;5009008;28;20034;-73
2023/01/27 01:08:13;;;;;;;11.80;6.30;;;3.60;99.90;;;;;;4992688;28;20038;-73
2023/01/27 01:10:38;;;;;;;12.47;6.10;;;3.60;99.90;;;;;;5008225;28;20091;-73
2023/01/27 01:13:10;;;;;;;12.00;6.33;;;3.60;99.90;;;;;;5009143;28;20150;-73
2023/01/27 01:15:40;;;;;;;11.35;5.70;;;3.60;99.90;;;;;;4992040;28;20073;-73
2023/01/27 01:18:08;;;;;;;13.23;5.43;;;3.60;99.90;;;;;;5008625;28;20045;-73
2023/01/27 01:20:52;;;;;;;14.48;5.30;;;3.60;99.90;;;;;;5007195;28;20042;-73
2023/01/27 01:23:18;;;;;;;10.73;5.13;;;3.60;99.90;;;;;;5008399;28;20038;-73
2023/01/27 01:25:55;;;;;;;10.17;5.60;;;3.60;99.90;;;;;;4974519;28;20556;-73
2023/01/27 01:28:21;;;;;;;10.63;5.43;;;3.60;99.90;;;;;;5008539;28;20041;-73
2023/01/27 01:30:46;;;;;;;10.40;5.20;;;3.70;99.90;;;;;;4991443;28;20514;-73
2023/01/27 01:33:12;;;;;;;11.67;5.73;;;3.60;99.90;;;;;;5008093;28;20054;-73
2023/01/27 01:35:38;;;;;;;11.83;5.63;;;3.60;99.90;;;;;;4992173;28;20049;-73
2023/01/27 01:38:04;;;;;;;15.23;5.82;;;3.60;99.90;;;;;;5008313;28;20301;-73
2023/01/27 01:40:30;;;;;;;14.18;6.00;;;3.60;99.90;;;;;;4990952;28;20033;-73
2023/01/27 01:43:03;;;;;;;12.47;6.40;;;3.60;99.90;;;;;;5005524;28;20172;-73
2023/01/27 01:45:35;;;;;;;11.45;6.32;;;3.50;99.90;;;;;;4987937;28;20288;-73
2023/01/27 01:48:09;;;;;;;13.20;5.78;;;3.50;99.90;;;;;;4991761;28;20085;-73
2023/01/27 01:50:36;;;;;;;11.50;5.97;;;3.50;99.90;;;;;;5006834;28;20498;-73
2023/01/27 01:53:04;;;;;;;14.18;6.43;;;3.40;99.90;;;;;;4990747;28;20041;-73
2023/01/27 01:55:33;;;;;;;10.63;5.85;;;3.50;99.90;;;;;;4990993;28;20045;-73
2023/01/27 01:57:59;;;;;;;13.82;5.65;;;3.50;99.90;;;;;;5007341;28;20060;-73
2023/01/27 02:00:25;;;;;;;10.32;5.85;;;3.50;99.90;;;;;;4990753;28;20041;-73
2023/01/27 02:02:53;;;;;;;13.63;5.87;;;3.40;99.90;;;;;;5006654;28;20114;-73
2023/01/27 02:05:48;;;;;;;10.40;5.35;;;3.40;99.90;;;;;;5007173;28;20084;-73
2023/01/27 02:08:20;;;;;;;16.50;6.00;;;3.40;99.90;;;;;;4967631;28;20714;-73
2023/01/27 02:10:46;;;;;;;12.82;5.75;;;3.30;99.90;;;;;;5005484;28;20641;-73
2023/01/27 02:13:12;;;;;;;13.25;5.82;;;3.30;99.90;;;;;;5007715;28;20053;-73
2023/01/27 02:15:38;;;;;;;11.10;4.83;;;3.30;99.90;;;;;;4990764;28;20593;-73
2023/01/27 02:18:05;;;;;;;11.43;5.55;;;3.30;99.90;;;;;;5007365;28;20054;-73
2023/01/27 02:20:44;;;;;;;11.27;5.47;;;3.30;99.90;;;;;;5006471;28;20064;-73
2023/01/27 02:23:41;;;;;;;15.15;4.80;;;3.30;99.90;;;;;;4991158;28;20124;-73
2023/01/27 02:26:24;;;;;;;13.90;5.60;;;3.30;99.90;;;;;;5014827;28;20073;-73
2023/01/27 02:28:55;;;;;;;8.52;4.85;;;3.30;99.90;;;;;;4990537;28;20124;-73
2023/01/27 02:31:22;;;;;;;8.65;4.70;;;3.30;99.90;;;;;;5006112;28;20125;-73
2023/01/27 02:33:48;;;;;;;9.70;4.60;;;3.30;99.90;;;;;;4989592;28;20049;-73
2023/01/27 02:36:16;;;;;;;14.75;5.15;;;3.30;99.90;;;;;;5006547;28;20050;-73
2023/01/27 02:38:47;;;;;;;10.45;4.78;;;3.30;99.90;;;;;;4990740;28;20061;-73
2023/01/27 02:41:31;;;;;;;16.55;4.60;;;3.30;99.90;;;;;;5005678;28;20040;-73
2023/01/27 02:43:57;;;;;;;10.05;4.18;;;3.20;99.90;;;;;;4999249;28;20048;-73
2023/01/27 02:46:22;;;;;;;12.17;4.37;;;3.20;99.90;;;;;;4988921;28;20042;-73
2023/01/27 02:48:48;;;;;;;10.73;4.40;;;3.10;99.90;;;;;;5005458;28;20056;-73
2023/01/27 02:51:14;;;;;;;13.50;4.20;;;3.10;99.90;;;;;;5006012;28;20049;-73
2023/01/27 02:53:40;;;;;;;10.60;3.90;;;3.10;99.90;;;;;;4990165;28;20073;-73
2023/01/27 02:56:06;;;;;;;13.48;3.25;;;3.10;99.90;;;;;;4990258;28;20421;-73
2023/01/27 02:58:32;;;;;;;6.82;2.42;;;3.10;99.90;;;;;;5006549;28;20042;-73
2023/01/27 03:00:58;;;;;;;8.33;2.50;;;3.10;99.90;;;;;;4989478;28;20042;-73
2023/01/27 03:03:24;;;;;;;8.47;2.03;;;3.20;99.90;;;;;;4971466;28;20388;-73
2023/01/27 03:05:50;;;;;;;5.40;1.83;;;3.20;99.90;;;;;;5006290;28;20037;-73
2023/01/27 03:08:17;;;;;;;8.00;2.05;;;3.20;99.90;;;;;;5006111;28;20052;-73
2023/01/27 03:10:43;;;;;;;6.63;1.80;;;3.20;99.90;;;;;;4971684;28;20136;-73
2023/01/27 03:13:08;;;;;;;8.82;2.15;;;3.10;99.90;;;;;;4990399;28;20100;-73
2023/01/27 03:18:20;;;;;;;5.05;1.55;;;3.10;99.90;;;;;;5006412;28;20529;-73
2023/01/27 03:20:48;;;;;;;6.68;1.30;;;3.10;99.90;;;;;;4969757;28;20050;-73
2023/01/27 03:23:16;;;;;;;4.75;1.50;;;3.20;99.90;;;;;;4986521;28;20046;-73
2023/01/27 03:25:43;;;;;;;4.95;1.58;;;3.20;99.90;;;;;;4990313;28;20060;-74
2023/01/27 03:28:09;;;;;;;8.18;1.88;;;3.20;99.90;;;;;;5006004;28;20061;-73
2023/01/27 03:30:35;;;;;;;5.28;1.55;;;3.20;99.90;;;;;;5005441;28;20252;-73
2023/01/27 03:33:02;;;;;;;4.57;1.38;;;3.20;99.90;;;;;;5006085;28;20198;-73
2023/01/27 03:35:37;;;;;;;7.75;2.05;;;3.20;99.90;;;;;;4974236;28;20885;-73
2023/01/27 03:46:26;;;;;;;5.28;1.08;;;3.20;99.90;;;;;;4992140;28;20448;-73
2023/01/27 03:48:54;;;;;;;7.10;1.43;;;3.30;99.90;;;;;;5005171;28;20064;-73
2023/01/27 03:51:22;;;;;;;4.88;1.10;;;3.20;99.90;;;;;;4988952;28;20081;-73
2023/01/27 03:53:49;;;;;;;4.70;1.00;;;3.20;99.90;;;;;;5006459;28;20050;-73
2023/01/27 03:56:16;;;;;;;3.28;0.60;;;3.20;99.90;;;;;;4989964;28;20041;-73
2023/01/27 03:58:42;;;;;;;4.50;0.70;;;3.20;99.90;;;;;;4989887;28;20064;-73
2023/01/27 04:01:13;;;;;;;5.43;0.85;;;3.20;99.90;;;;;;4987101;28;20042;-73
2023/01/27 04:09:12;;;;;;;3.92;0.88;;;3.20;99.90;;;;;;5001734;28;20111;-73
2023/01/27 04:14:24;;;;;;;3.13;0.60;;;3.30;99.90;;;;;;4991476;28;20054;-73
2023/01/27 04:16:52;;;;;;;2.38;0.60;;;3.20;99.90;;;;;;5005192;28;20056;-73
2023/01/27 04:19:18;;;;;;;4.65;0.70;;;3.10;99.90;;;;;;4988519;28;20049;-73
2023/01/27 04:21:44;;;;;;;2.08;0.70;;;3.00;99.90;;;;;;5005542;28;20626;-73
2023/01/27 04:24:23;;;;;;;2.13;0.57;;;2.90;99.90;;;;;;4973307;28;20486;-73
2023/01/27 04:26:55;;;;;;;3.70;0.63;;;2.80;99.90;;;;;;5005458;28;20046;-73
2023/01/27 04:29:23;;;;;;;6.18;1.30;;;2.70;99.90;;;;;;5005651;28;20500;-73
2023/01/27 04:31:49;;;;;;;4.93;1.88;;;2.70;99.90;;;;;;5005310;28;20046;-73
2023/01/27 04:34:15;;;;;;;5.18;0.77;;;2.70;99.90;;;;;;5005550;28;20060;-73
2023/01/27 04:36:41;;;;;;;4.15;0.75;;;2.70;99.90;;;;;;5006039;28;20129;-73
2023/01/27 04:39:07;;;;;;;2.87;0.83;;;2.80;99.90;;;;;;4989706;28;20546;-73
2023/01/27 04:41:33;;;;;;;4.55;1.00;;;2.80;99.90;;;;;;5005073;28;20038;-73
2023/01/27 04:43:59;;;;;;;4.63;0.70;;;2.80;99.90;;;;;;5005599;28;20103;-73
2023/01/27 04:46:25;;;;;;;5.33;0.87;;;2.80;99.90;;;;;;4989553;28;20037;-73
2023/01/27 04:48:51;;;;;;;4.43;1.13;;;2.80;99.90;;;;;;4989093;28;20297;-73
2023/01/27 04:51:17;;;;;;;3.80;0.90;;;2.70;99.90;;;;;;4988849;28;20128;-73
2023/01/27 04:53:43;;;;;;;5.03;1.00;;;2.70;99.90;;;;;;4972981;28;20042;-73
2023/01/27 04:56:24;;;;;;;3.87;1.23;;;2.60;99.90;;;;;;5005601;28;20046;-73
2023/01/27 04:58:50;;;;;;;3.55;1.35;;;2.60;99.90;;;;;;4983634;28;20038;-73
2023/01/27 05:01:17;;;;;;;3.80;1.20;;;2.60;99.90;;;;;;4991847;28;20054;-73
2023/01/27 05:03:42;;;;;;;2.65;1.20;;;2.60;99.90;;;;;;5008552;28;20344;-73
2023/01/27 05:06:12;;;;;;;5.47;1.40;;;2.60;99.90;;;;;;5008657;28;20041;-73
2023/01/27 05:08:38;;;;;;;6.35;1.60;;;2.60;99.90;;;;;;5008868;28;20045;-73
2023/01/27 05:11:04;;;;;;;6.68;1.75;;;2.60;99.90;;;;;;5007937;28;20513;-73
2023/01/27 05:13:30;;;;;;;7.40;1.73;;;2.60;99.90;;;;;;4975797;28;20046;-73
2023/01/27 05:16:19;;;;;;;5.57;1.67;;;2.60;99.90;;;;;;5009004;28;20076;-73
2023/01/27 05:18:47;;;;;;;5.60;1.90;;;2.60;99.90;;;;;;5008858;28;20041;-73
2023/01/27 05:21:16;;;;;;;4.25;1.63;;;2.70;99.90;;;;;;5008478;28;20056;-73
2023/01/27 05:23:41;;;;;;;4.88;2.22;;;2.70;99.90;;;;;;5008807;28;20057;-73
2023/01/27 05:26:18;;;;;;;9.03;2.30;;;2.70;99.90;;;;;;4993054;28;20038;-73
2023/01/27 05:28:45;;;;;;;6.65;2.13;;;2.70;99.90;;;;;;4992804;28;20057;-73
2023/01/27 05:31:14;;;;;;;4.03;1.88;;;2.70;99.90;;;;;;4992174;28;20042;-73
2023/01/27 05:33:41;;;;;;;4.57;1.67;;;2.70;99.90;;;;;;4992290;28;20046;-73
2023/01/27 05:36:10;;;;;;;7.00;1.80;;;2.60;99.90;;;;;;5008402;28;20045;-73
2023/01/27 05:38:35;;;;;;;2.58;1.00;;;2.60;99.90;;;;;;4992401;28;20046;-73
2023/01/27 05:41:04;;;;;;;4.50;1.00;;;2.60;99.90;;;;;;5008104;28;20481;-73
2023/01/27 05:43:31;;;;;;;5.07;0.90;;;2.60;99.90;;;;;;5008516;28;20423;-73
2023/01/27 05:46:07;;;;;;;4.53;0.95;;;2.60;99.90;;;;;;5008406;28;20131;-73
2023/01/27 05:48:39;;;;;;;4.78;1.40;;;2.60;99.90;;;;;;4992091;28;20431;-73
2023/01/27 05:51:06;;;;;;;3.47;0.93;;;2.60;99.90;;;;;;5008103;28;20085;-73
2023/01/27 05:53:33;;;;;;;4.07;1.13;;;2.50;99.90;;;;;;5008408;28;20050;-72
2023/01/27 05:55:59;;;;;;;5.25;1.15;;;2.50;99.90;;;;;;4991784;28;20585;-73
2023/01/27 05:58:25;;;;;;;6.57;1.10;;;2.40;99.90;;;;;;5008045;28;20045;-73
2023/01/27 06:00:51;;;;;;;3.05;1.02;;;2.40;99.90;;;;;;4991039;28;20053;-73
2023/01/27 06:03:17;;;;;;;2.87;0.97;;;2.40;99.90;;;;;;4988829;28;20499;-73
2023/01/27 06:05:54;;;;;;;2.67;1.00;;;2.40;99.90;;;;;;5023018;28;20038;-73
2023/01/27 06:08:22;;;;;;;3.33;1.10;;;2.40;99.90;;;;;;4991515;28;20449;-72
2023/01/27 06:10:48;;;;;;;3.63;1.52;;;2.40;99.90;;;;;;5007090;28;20112;-73
2023/01/27 06:13:14;;;;;;;5.38;1.00;;;2.40;99.90;;;;;;4976723;28;20538;-73
2023/01/27 06:15:44;;;;;;;2.33;1.23;;;2.40;99.90;;;;;;5007747;28;20077;-73
2023/01/27 06:18:11;;;;;;;5.00;0.93;;;2.40;99.90;;;;;;5007134;28;20586;-73
2023/01/27 06:20:37;;;;;;;4.35;1.13;;;2.50;99.90;;;;;;5007314;28;20038;-73
2023/01/27 06:23:03;;;;;;;3.28;0.73;;;2.50;99.90;;;;;;5007759;28;20045;-73
2023/01/27 06:25:29;;;;;;;4.03;1.30;;;2.50;99.90;;;;;;5007208;28;20100;-73
2023/01/27 06:27:56;;;;;;;2.77;0.80;;;2.60;99.90;;;;;;5007458;28;20041;-73
2023/01/27 06:30:22;;;;;;;2.92;0.80;;;2.50;99.90;;;;;;4990240;28;20068;-73
2023/01/27 06:32:48;;;;;;;2.55;0.85;;;2.50;99.90;;;;;;5007082;28;20044;-73
2023/01/27 06:35:14;;;;;;;4.37;1.00;;;2.50;99.90;;;;;;4990622;28;20045;-73
2023/01/27 06:37:39;;;;;;;4.57;0.97;;;2.50;99.90;;;;;;5007046;28;20046;-72
2023/01/27 06:40:05;;;;;;;3.57;1.10;;;2.50;99.90;;;;;;5006215;28;20133;-73
2023/01/27 06:42:31;;;;;;;4.23;0.80;;;2.60;99.90;;;;;;4990763;28;20034;-72
2023/01/27 06:44:57;;;;;;;4.40;1.00;;;2.50;99.90;;;;;;5007084;28;20284;-73
2023/01/27 06:47:23;;;;;;;3.37;0.70;;;2.50;99.90;;;;;;4990139;28;20089;-73
2023/01/27 06:49:49;;;;;;;3.47;1.00;;;2.50;99.90;;;;;;5005692;28;20065;-73
2023/01/27 06:52:14;;;;;;;3.80;0.80;;;2.50;99.90;;;;;;5007160;28;20045;-73
2023/01/27 06:54:40;;;;;;;3.33;0.73;;;2.50;99.90;;;;;;5006830;28;20137;-73
2023/01/27 06:57:08;;;;;;;2.60;1.17;;;2.50;99.90;;;;;;5006764;28;20062;-73
2023/01/27 06:59:34;;;;;;;2.47;0.63;;;2.50;99.90;;;;;;5005839;28;20483;-73
2023/01/27 07:02:00;;;;;;;6.20;0.77;;;2.60;99.90;;;;;;5006622;28;20080;-73
2023/01/27 07:04:26;;;;;;;3.00;1.00;;;2.60;99.90;;;;;;4969908;28;20065;-73
2023/01/27 07:06:51;;;;;;;4.43;0.87;;;2.60;99.90;;;;;;4990319;28;20127;-73
2023/01/27 07:09:17;;;;;;;3.30;0.70;;;2.60;99.90;;;;;;5005985;28;20037;-73
2023/01/27 07:11:43;;;;;;;5.33;1.13;;;2.60;99.90;;;;;;5006031;28;20662;-73
2023/01/27 07:14:09;;;;;;;4.40;1.00;;;2.60;99.90;;;;;;4974091;28;20627;-73
2023/01/27 07:16:35;;;;;;;4.10;0.93;;;2.60;99.90;;;;;;5003400;28;20045;-73
2023/01/27 07:19:01;;;;;;;6.60;1.43;;;2.60;99.90;;;;;;4973393;28;20031;-73
2023/01/27 07:21:26;;;;;;;3.60;0.77;;;2.60;99.90;;;;;;5007683;28;20117;-73
2023/01/27 07:23:52;;;;;;;6.00;1.13;;;2.60;99.90;;;;;;5008010;28;20038;-73
2023/01/27 07:26:18;;;;;;;4.60;0.60;;;2.60;99.90;;;;;;4974414;28;20124;-73
2023/01/27 07:28:43;;;;;;;3.13;1.00;;;2.60;99.90;;;;;;5007236;28;20825;-73
2023/01/27 07:31:09;;;;;;;3.97;1.50;;;2.60;99.90;;;;;;4978065;28;20038;-73
2023/01/27 07:33:36;;;;;;;2.40;0.70;;;2.60;99.90;;;;;;5007600;28;20145;-73
2023/01/27 07:36:01;;;;;;;2.38;0.70;;;2.60;99.90;;;;;;5007802;28;20120;-73
2023/01/27 07:38:27;;;;;;;2.17;0.80;;;2.60;99.90;;;;;;5008553;28;20113;-73
2023/01/27 07:40:53;;;;;;;5.07;1.00;;;2.60;99.90;;;;;;4991175;28;20033;-73
2023/01/27 07:43:19;;;;;;;2.07;0.70;;;2.60;99.90;;;;;;4989793;28;20195;-73
2023/01/27 07:45:47;;;;;;;5.17;1.00;;;2.60;99.90;;;;;;4985788;28;20044;-73
2023/01/27 07:48:15;;;;;;;6.22;1.45;;;2.60;99.90;;;;;;5007372;28;20081;-73
2023/01/27 07:50:41;;;;;;;7.70;0.90;;;2.60;99.90;;;;;;4976196;28;20593;-73
2023/01/27 07:53:07;;;;;;;6.05;1.00;;;2.60;99.90;;;;;;5008036;28;20049;-73
2023/01/27 07:55:33;;;;;;;5.27;0.77;;;2.60;99.90;;;;;;5008033;28;20062;-73
2023/01/27 07:57:58;;;;;;;4.60;0.60;;;2.60;99.90;;;;;;5007252;28;20457;-73
2023/01/27 08:00:25;;;;;;;5.80;0.60;;;2.70;99.90;;;;;;4970426;28;20049;-73
2023/01/27 08:02:51;;;;;;;2.70;0.70;;;2.70;99.90;;;;;;4991610;28;20046;-73
2023/01/27 08:05:17;;;;;;;3.88;0.90;;;2.70;99.90;;;;;;4990581;28;20038;-73
2023/01/27 08:07:43;;;;;;;5.07;0.87;;;2.70;99.90;;;;;;4992694;28;20156;-73
2023/01/27 08:10:09;;;;;;;5.60;1.20;;;2.80;99.90;;;;;;4991745;28;20049;-73
2023/01/27 08:12:35;;;;;;;3.58;1.25;;;2.80;99.90;;;;;;4976393;28;20069;-73
2023/01/27 08:15:01;;;;;;;4.10;1.80;;;2.80;99.90;;;;;;4981725;28;20430;-73
2023/01/27 08:17:27;;;;;;;5.60;1.60;;;2.80;99.90;;;;;;5009508;28;20866;-73
2023/01/27 08:19:52;;;;;;;5.20;1.43;;;2.80;99.90;;;;;;4993435;28;20042;-74
2023/01/27 08:22:21;;;;;;;3.83;1.37;;;2.80;99.90;;;;;;5010686;28;20038;-74
2023/01/27 08:24:48;;;;;;;4.53;0.80;;;2.90;99.90;;;;;;4994254;28;20041;-74
2023/01/27 08:27:15;;;;;;;4.60;1.10;;;2.90;99.90;;;;;;4994386;28;20046;-74
2023/01/27 08:29:41;;;;;;;4.18;0.80;;;2.90;99.90;;;;;;5009672;28;20042;-75
2023/01/27 08:32:07;;;;;;;1.65;0.90;;;2.90;99.90;;;;;;4995249;28;20053;-73
2023/01/27 08:34:33;;;;;;;2.55;1.17;;;3.00;99.90;;;;;;5013558;28;20049;-73
2023/01/27 08:36:59;;;;;;;6.82;1.20;;;3.00;99.90;;;;;;4985334;28;20196;-73
2023/01/27 08:39:25;;;;;;;2.60;0.77;;;3.00;99.90;;;;;;5013028;28;20710;-74
2023/01/27 08:41:50;;;;;;;2.57;0.90;;;3.00;99.90;;;;;;4983864;28;20042;-74
2023/01/27 08:44:16;;;;;;;2.40;0.80;;;3.00;99.90;;;;;;4998235;28;20390;-74
2023/01/27 08:46:42;;;;;;;6.63;0.87;;;3.00;99.90;;;;;;5003385;28;20554;-74
2023/01/27 08:49:08;;;;;;;4.03;0.63;;;3.00;99.90;;;;;;5014194;28;20716;-73
2023/01/27 08:51:34;;;;;;;2.60;0.60;;;3.10;99.90;;;;;;4979222;28;20074;-73
2023/01/27 08:54:00;;;;;;;3.80;0.70;;;3.10;99.90;;;;;;5008979;28;20046;-74
2023/01/27 08:56:25;;;;;;;4.03;0.63;;;3.10;99.90;;;;;;4998188;28;20511;-74
2023/01/27 08:58:51;;;;;;;1.77;0.60;;;3.10;99.90;;;;;;4996986;28;20042;-73
2023/01/27 09:01:18;;;;;;;2.72;0.93;;;3.20;99.90;;;;;;4986682;28;20125;-74
2023/01/27 09:03:44;;;;;;;2.60;0.90;;;3.20;99.90;;;;;;5015210;28;20153;-74
2023/01/27 09:06:12;;;;;;;1.27;0.40;;;3.20;99.90;;;;;;4998861;28;20073;-75
2023/01/27 09:08:39;;;;;;;2.47;0.40;;;3.30;99.90;;;;;;5014393;28;20276;-74
2023/01/27 09:11:14;;;;;;;1.15;0.52;;;3.30;99.90;;;;;;4983175;28;20042;-74
2023/01/27 09:13:39;;;;;;;0.95;0.40;;;3.30;99.90;;;;;;4997756;28;20111;-74
2023/01/27 09:16:06;;;;;;;2.43;0.60;;;3.30;99.90;;;;;;4995379;28;20042;-73
2023/01/27 09:18:32;;;;;;;1.58;0.40;;;3.40;99.90;;;;;;5014869;28;20053;-74
2023/01/27 09:21:02;;;;;;;2.42;0.38;;;3.40;99.90;;;;;;5014764;28;20046;-74
2023/01/27 09:23:28;;;;;;;2.65;0.32;;;3.40;99.90;;;;;;4999846;28;20037;-74
2023/01/27 09:25:54;;;;;;;1.43;0.57;;;3.40;99.90;;;;;;5014676;28;20044;-74
2023/01/27 09:28:19;;;;;;;3.50;0.60;;;3.40;99.90;;;;;;5015252;28;20046;-75
2023/01/27 09:30:45;;;;;;;3.27;0.60;;;3.40;99.90;;;;;;4998482;28;20117;-74
2023/01/27 09:33:12;;;;;;;3.35;0.50;;;3.40;99.90;;;;;;5014627;28;20108;-74
2023/01/27 09:35:48;;;;;;;2.33;1.30;;;3.40;99.90;;;;;;5014978;28;20038;-74
2023/01/27 09:38:18;;;;;;;3.53;0.80;;;3.40;99.90;;;;;;5015445;28;20038;-74
2023/01/27 09:41:08;;;;;;;4.20;1.00;;;3.50;99.90;;;;;;5014717;28;20046;-74
2023/01/27 09:44:10;;;;;;;1.52;0.57;;;3.50;99.90;;;;;;5003058;28;20168;-74
2023/01/27 09:46:40;;;;;;;2.33;0.50;;;3.50;99.90;;;;;;4993874;28;20629;-74
2023/01/27 09:49:23;;;;;;;2.33;0.47;;;3.50;99.90;;;;;;5012357;28;20054;-74
2023/01/27 09:52:31;;;;;;;3.60;0.70;;;3.50;99.90;;;;;;5018615;28;20051;-74
2023/01/27 09:55:02;;;;;;;1.30;0.50;;;3.60;99.90;;;;;;5012439;28;20050;-74
2023/01/27 09:58:00;;;;;;;3.08;0.70;;;3.60;99.90;;;;;;5013368;28;20872;-74
2023/01/27 10:00:54;;;;;;;5.30;1.38;;;3.60;99.90;;;;;;4993986;28;20140;-74
2023/01/27 10:03:42;;;;;;;5.90;1.20;;;3.70;99.90;;;;;;4995039;28;20517;-74
2023/01/27 10:06:07;;;;;;;5.18;1.38;;;3.80;99.90;;;;;;4993354;28;20045;-74
2023/01/27 10:08:51;;;;;;;6.33;1.50;;;3.80;99.90;;;;;;4997412;28;20042;-74
2023/01/27 10:11:23;;;;;;;5.32;1.40;;;3.80;99.90;;;;;;4998210;28;20045;-74
2023/01/27 10:14:30;;;;;;;7.55;1.63;;;3.80;99.90;;;;;;5014278;28;20049;-74
2023/01/27 10:17:02;;;;;;;5.57;0.82;;;3.90;99.90;;;;;;4999422;28;20080;-75
2023/01/27 10:19:44;;;;;;;3.20;0.77;;;3.90;99.90;;;;;;5015127;28;20038;-75
2023/01/27 10:22:23;;;;;;;3.83;0.70;;;3.90;99.90;;;;;;5017171;28;20533;-75
2023/01/27 10:24:58;;;;;;;5.18;0.75;;;3.90;99.90;;;;;;4999190;28;20085;-74
2023/01/27 10:27:29;;;;;;;3.35;0.75;;;3.90;99.90;;;;;;5012625;28;20041;-72
2023/01/27 10:30:16;;;;;;;4.43;0.60;;;4.00;99.90;;;;;;5008462;28;20500;-72
2023/01/27 10:32:59;;;;;;;7.45;1.23;;;4.10;99.90;;;;;;4991130;28;20136;-72
2023/01/27 10:35:37;;;;;;;5.15;1.00;;;4.10;99.90;;;;;;4997841;28;20131;-72
2023/01/27 10:38:19;;;;;;;5.80;0.90;;;4.10;99.90;;;;;;5008545;28;20050;-72
2023/01/27 10:41:05;;;;;;;3.53;0.80;;;4.20;99.90;;;;;;5007774;28;20045;-72
2023/01/27 10:44:03;;;;;;;2.28;0.68;;;4.20;99.90;;;;;;4980481;28;20076;-72
2023/01/27 10:47:06;;;;;;;3.58;0.90;;;4.30;99.90;;;;;;4980007;28;20050;-72
2023/01/27 10:49:50;;;;;;;4.70;1.55;;;4.40;99.90;;;;;;5006289;28;20108;-72
2023/01/27 10:52:30;;;;;;;5.05;0.80;;;4.50;99.90;;;;;;5008979;28;20870;-72
2023/01/27 10:55:20;;;;;;;2.90;0.70;;;4.50;99.90;;;;;;5000768;28;20041;-72
2023/01/27 10:58:02;;;;;;;4.03;0.70;;;4.50;99.90;;;;;;4994479;28;20061;-72
2023/01/27 11:00:30;;;;;;;2.63;0.60;;;4.60;99.90;;;;;;5009833;28;20034;-72
2023/01/27 11:03:14;;;;;;;1.92;0.40;;;4.60;99.90;;;;;;4993712;28;20647;-72
2023/01/27 11:05:46;;;;;;;3.03;0.30;;;4.70;99.90;;;;;;5010330;28;20073;-72
2023/01/27 11:08:17;;;;;;;1.80;0.30;;;4.70;99.90;;;;;;5010505;28;20133;-72
2023/01/27 11:13:34;;;;;;;1.52;0.35;;;4.80;99.90;;;;;;5009830;28;20081;-72
2023/01/27 11:16:01;;;;;;;1.52;0.10;;;4.90;99.90;;;;;;4993834;28;20045;-72
2023/01/27 11:18:29;;;;;;;1.85;0.30;;;5.00;99.90;;;;;;5009304;28;20049;-72
2023/01/27 11:20:59;;;;;;;1.02;0.20;;;5.10;99.90;;;;;;4993435;28;20044;-72
2023/01/27 11:23:37;;;;;;;1.20;0.20;;;5.30;99.90;;;;;;5008912;28;20414;-73
2023/01/27 11:26:11;;;;;;;1.52;0.40;;;5.50;99.90;;;;;;4994283;28;20556;-73
2023/01/27 11:28:46;;;;;;;1.75;0.43;;;5.70;99.90;;;;;;4994229;28;20041;-73
2023/01/27 11:31:31;;;;;;;5.70;0.57;;;5.70;99.90;;;;;;5010606;28;20780;-73
2023/01/27 11:34:05;;;;;;;2.75;0.45;;;5.60;99.90;;;;;;5008655;28;20042;-73
2023/01/27 11:36:33;;;;;;;1.42;0.40;;;5.50;99.90;;;;;;5010059;28;20069;-73
2023/01/27 11:39:03;;;;;;;3.00;0.40;;;5.40;99.90;;;;;;5008772;28;20056;-73
2023/01/27 11:41:32;;;;;;;3.25;0.50;;;5.40;99.90;;;;;;4993811;28;20212;-73
2023/01/27 11:44:03;;;;;;;2.42;0.38;;;5.30;99.90;;;;;;5007253;28;20049;-73
2023/01/27 11:46:31;;;;;;;1.17;0.30;;;5.20;99.90;;;;;;5005715;28;20045;-73
2023/01/27 11:48:58;;;;;;;1.02;0.30;;;5.20;99.90;;;;;;5004058;28;20053;-73
2023/01/27 11:51:27;;;;;;;1.75;0.40;;;5.10;99.90;;;;;;4990589;28;20057;-73
2023/01/27 11:54:14;;;;;;;1.15;0.20;;;5.00;99.90;;;;;;5003361;28;20048;-73
2023/01/27 11:56:44;;;;;;;0.90;0.50;;;5.00;99.90;;;;;;5005333;28;20042;-73
2023/01/27 11:59:17;;;;;;;0.80;0.25;;;4.90;99.90;;;;;;4990284;28;20144;-73
2023/01/27 12:02:11;;;;;;;1.67;0.38;;;4.90;99.90;;;;;;4990538;28;20530;-73
2023/01/27 12:04:37;;;;;;;0.32;0.20;;;4.80;99.90;;;;;;4990584;28;20080;-73
2023/01/27 12:07:33;;;;;;;0.70;0.20;;;4.80;99.90;;;;;;5011346;28;20077;-73
2023/01/27 12:09:59;;;;;;;0.52;0.30;;;4.80;99.90;;;;;;5006261;28;20108;-74
2023/01/27 12:12:26;;;;;;;2.25;0.40;;;4.70;99.90;;;;;;4995359;28;20046;-73
2023/01/27 12:14:57;;;;;;;1.35;0.20;;;4.70;99.90;;;;;;5011605;28;20040;-75
2023/01/27 12:17:29;;;;;;;1.52;0.40;;;4.70;99.90;;;;;;4995228;28;20080;-74
2023/01/27 12:19:59;;;;;;;1.63;0.30;;;4.70;99.90;;;;;;4995353;28;20046;-74
2023/01/27 12:22:32;;;;;;;0.60;0.30;;;4.70;99.90;;;;;;5011276;28;20034;-74
2023/01/27 12:25:07;;;;;;;0.68;0.30;;;4.60;99.90;;;;;;5010837;28;20853;-73
2023/01/27 12:27:41;;;;;;;0.30;0.20;;;4.60;99.90;;;;;;5013433;28;20120;-74
2023/01/27 12:30:30;;;;;;;0.60;0.20;;;4.60;99.90;;;;;;5011036;28;20473;-74
2023/01/27 12:32:58;;;;;;;1.15;0.20;;;4.60;99.90;;;;;;4994300;28;20049;-74
2023/01/27 12:35:32;;;;;;;0.55;0.30;;;4.60;99.90;;;;;;4996732;28;20524;-74
2023/01/27 12:38:10;;;;;;;0.73;0.30;;;4.50;99.90;;;;;;5003353;28;20149;-74
2023/01/27 12:40:40;;;;;;;0.80;0.20;;;4.50;99.90;;;;;;5004721;28;20061;-74
2023/01/27 12:43:19;;;;;;;1.05;0.30;;;4.60;99.90;;;;;;4985590;28;20081;-75
2023/01/27 12:46:11;;;;;;;1.75;0.30;;;4.60;99.90;;;;;;5007379;28;20377;-74
2023/01/27 12:48:51;;;;;;;2.03;0.45;;;4.40;99.90;;;;;;5004126;28;20405;-73
2023/01/27 12:51:23;;;;;;;2.80;0.57;;;4.40;99.90;;;;;;5008198;28;20065;-73
2023/01/27 12:54:10;;;;;;;1.65;0.70;;;4.30;99.90;;;;;;5010167;28;20514;-73
2023/01/27 12:56:37;;;;;;;3.53;1.05;;;4.30;99.90;;;;;;4989324;28;20454;-73
2023/01/27 12:59:03;;;;;;;2.13;0.88;;;4.30;99.90;;;;;;5001904;28;20042;-73
2023/01/27 13:01:37;;;;;;;4.27;1.03;;;4.30;99.90;;;;;;5002723;28;20083;-74
2023/01/27 13:04:12;;;;;;;1.42;0.80;;;4.20;99.90;;;;;;5000821;28;20133;-74
2023/01/27 13:06:46;;;;;;;2.03;0.73;;;4.20;99.90;;;;;;5008272;28;20034;-73
2023/01/27 13:09:21;;;;;;;1.23;0.65;;;4.20;99.90;;;;;;4983320;28;20046;-74
2023/01/27 13:11:47;;;;;;;1.63;0.80;;;4.10;99.90;;;;;;5005035;28;20545;-74
2023/01/27 13:14:16;;;;;;;3.00;0.60;;;4.10;99.90;;;;;;4984620;28;20056;-73
2023/01/27 13:16:50;;;;;;;2.08;0.65;;;4.10;99.90;;;;;;4988863;28;20045;-75
2023/01/27 13:19:17;;;;;;;1.73;0.90;;;4.10;99.90;;;;;;4988169;28;20046;-74
2023/01/27 13:21:49;;;;;;;2.08;0.70;;;4.00;99.90;;;;;;5008224;28;20285;-73
2023/01/27 13:24:21;;;;;;;1.33;0.93;;;4.10;99.90;;;;;;4991796;28;20113;-75
2023/01/27 13:26:49;;;;;;;2.22;0.90;;;4.00;99.90;;;;;;5008122;28;20042;-74
2023/01/27 13:29:25;;;;;;;2.67;1.00;;;4.00;99.90;;;;;;5005543;28;20056;-74
2023/01/27 13:32:17;;;;;;;2.13;0.90;;;3.90;99.90;;;;;;4992890;28;20040;-73
2023/01/27 13:35:16;;;;;;;2.83;0.80;;;3.90;99.90;;;;;;5005632;28;20090;-74
2023/01/27 13:38:20;;;;;;;1.98;0.60;;;3.90;99.90;;;;;;4991171;28;20046;-74
2023/01/27 13:40:47;;;;;;;0.95;0.50;;;3.90;99.90;;;;;;5003234;28;20045;-74
2023/01/27 13:43:26;;;;;;;1.40;0.80;;;3.90;99.90;;;;;;4991140;28;20663;-74
2023/01/27 13:46:06;;;;;;;1.20;0.60;;;3.80;99.90;;;;;;5007414;28;20069;-73